createdAt,value
2022-07-25T00:00:54.433Z,101154.00
2022-07-25T00:03:52.232Z,101149.47
2022-07-25T00:06:49.997Z,101145.09
2022-07-25T00:09:46.927Z,101140.91
2022-07-25T00:12:43.914Z,101140.41
2022-07-25T00:15:40.967Z,101131.06
2022-07-25T00:18:38.168Z,101131.63
2022-07-25T00:21:34.841Z,101119.63
2022-07-25T00:24:32.269Z,101114.53
2022-07-25T00:27:30.182Z,101125.47
2022-07-25T00:30:27.956Z,101121.50
2022-07-25T00:33:26.435Z,101120.91
2022-07-25T00:36:24.084Z,101112.84
2022-07-25T00:39:21.270Z,101112.75
2022-07-25T00:42:18.727Z,101112.66
2022-07-25T00:45:15.957Z,101110.22
2022-07-25T00:48:12.951Z,101105.28
2022-07-25T00:51:10.073Z,101100.59
2022-07-25T00:54:07.079Z,101094.91
2022-07-25T00:57:04.922Z,101097.38
2022-07-25T01:00:04.937Z,101092.22
2022-07-25T01:03:02.617Z,101087.41
2022-07-25T01:06:00.001Z,101087.06
2022-07-25T01:08:56.947Z,101080.94
2022-07-25T01:11:53.704Z,101089.13
2022-07-25T01:14:50.789Z,101074.09
2022-07-25T01:17:47.999Z,101059.97
2022-07-25T01:20:45.188Z,101070.88
2022-07-25T01:23:42.685Z,101061.03
2022-07-25T01:26:40.071Z,101049.47
2022-07-25T01:29:36.695Z,101052.63
2022-07-25T01:32:34.638Z,101043.81
2022-07-25T01:35:31.587Z,101052.47
2022-07-25T01:38:29.138Z,101048.28
2022-07-25T01:41:25.955Z,101046.94
2022-07-25T01:44:23.098Z,101038.75
2022-07-25T01:47:20.076Z,101034.34
2022-07-25T01:50:17.131Z,101031.84
2022-07-25T01:53:15.153Z,101028.84
2022-07-25T01:56:12.060Z,101031.03
2022-07-25T01:59:09.898Z,101027.47
2022-07-25T02:02:07.578Z,101029.50
2022-07-25T02:05:05.277Z,101025.72
2022-07-25T02:08:03.094Z,101021.56
2022-07-25T02:11:00.372Z,101007.34
2022-07-25T02:13:58.166Z,101011.47
2022-07-25T02:16:56.434Z,101003.69
2022-07-25T02:19:54.251Z,100996.34
2022-07-25T02:22:51.878Z,100987.72
2022-07-25T02:25:49.188Z,100985.22
2022-07-25T02:28:45.929Z,100984.72
2022-07-25T02:31:43.181Z,100975.66
2022-07-25T02:34:39.938Z,100978.44
2022-07-25T02:37:37.331Z,100965.31
2022-07-25T02:40:35.063Z,100960.84
2022-07-25T02:43:31.997Z,100961.25
2022-07-25T02:46:29.074Z,100965.81
2022-07-25T02:49:26.287Z,100953.94
2022-07-25T02:52:22.883Z,100952.72
2022-07-25T02:55:20.378Z,100942.41
2022-07-25T02:58:17.856Z,100944.00
2022-07-25T03:01:15.261Z,100944.38
2022-07-25T03:04:12.944Z,100942.28
2022-07-25T03:07:13.042Z,100937.69
2022-07-25T03:10:11.297Z,100936.47
2022-07-25T03:13:08.631Z,100940.16
2022-07-25T03:16:06.575Z,100931.03
2022-07-25T03:19:04.071Z,100927.72
2022-07-25T03:22:01.070Z,100934.41
2022-07-25T03:24:58.258Z,100930.28
2022-07-25T03:27:54.929Z,100928.31
2022-07-25T03:30:52.463Z,100918.44
2022-07-25T03:33:50.339Z,100922.16
2022-07-25T03:36:46.670Z,100915.34
2022-07-25T03:39:44.370Z,100912.03
2022-07-25T03:42:42.256Z,100912.41
2022-07-25T03:45:39.095Z,100904.66
2022-07-25T03:48:36.279Z,100892.44
2022-07-25T03:51:34.319Z,100895.16
2022-07-25T03:54:31.761Z,100892.69
2022-07-25T03:57:29.421Z,100892.66
2022-07-25T04:00:27.044Z,100881.91
2022-07-25T04:03:24.200Z,100883.47
2022-07-25T04:06:21.230Z,100882.34
2022-07-25T04:09:17.963Z,100880.97
2022-07-25T04:12:14.885Z,100873.28
2022-07-25T04:15:13.107Z,100871.13
2022-07-25T04:18:10.125Z,100860.31
2022-07-25T04:21:12.340Z,100853.31
2022-07-25T04:24:09.297Z,100856.88
2022-07-25T04:27:06.761Z,100857.16
2022-07-25T04:30:04.476Z,100856.66
2022-07-25T04:33:02.077Z,100861.16
2022-07-25T04:35:59.368Z,100846.94
2022-07-25T04:38:57.122Z,100839.63
2022-07-25T04:41:54.001Z,100840.78
2022-07-25T04:44:50.996Z,100838.28
2022-07-25T04:47:48.001Z,100840.38
2022-07-25T04:50:45.272Z,100833.53
2022-07-25T04:53:42.041Z,100844.06
2022-07-25T04:56:38.860Z,100837.66
2022-07-25T04:59:35.768Z,100827.66
2022-07-25T05:02:33.176Z,100828.19
2022-07-25T05:05:32.461Z,100830.66
2022-07-25T05:08:30.062Z,100822.81
2022-07-25T05:11:27.082Z,100825.16
2022-07-25T05:14:24.351Z,100828.41
2022-07-25T05:17:21.286Z,100820.59
2022-07-25T05:20:18.025Z,100817.34
2022-07-25T05:23:15.149Z,100812.44
2022-07-25T05:26:12.132Z,100814.53
2022-07-25T05:29:10.387Z,100814.13
2022-07-25T05:32:07.068Z,100816.03
2022-07-25T05:35:05.049Z,100817.31
2022-07-25T05:38:02.538Z,100808.53
2022-07-25T05:40:59.982Z,100808.66
2022-07-25T05:43:57.057Z,100807.56
2022-07-25T05:46:54.183Z,100801.97
2022-07-25T05:49:51.090Z,100799.25
2022-07-25T05:52:48.195Z,100806.34
2022-07-25T05:55:45.044Z,100798.44
2022-07-25T05:58:42.461Z,100797.16
2022-07-25T06:01:40.406Z,100786.94
2022-07-25T06:04:37.956Z,100791.88
2022-07-25T06:07:35.051Z,100777.75
2022-07-25T06:10:32.735Z,100781.38
2022-07-25T06:13:30.306Z,100782.19
2022-07-25T06:16:33.387Z,100784.25
2022-07-25T06:19:31.058Z,100787.75
2022-07-25T06:22:27.929Z,100782.50
2022-07-25T06:25:25.093Z,100785.81
2022-07-25T06:28:22.314Z,100779.53
2022-07-25T06:31:19.121Z,100776.50
2022-07-25T06:34:16.537Z,100775.19
2022-07-25T06:37:14.042Z,100773.09
2022-07-25T06:40:11.355Z,100779.59
2022-07-25T06:43:08.321Z,100775.75
2022-07-25T06:46:05.202Z,100782.84
2022-07-25T06:49:02.041Z,100763.38
2022-07-25T06:51:59.465Z,100769.53
2022-07-25T06:54:56.761Z,100765.97
2022-07-25T06:57:54.632Z,100756.91
2022-07-25T07:00:52.290Z,100760.81
2022-07-25T07:03:48.924Z,100746.09
2022-07-25T07:06:46.518Z,100746.50
2022-07-25T07:09:44.672Z,100755.22
2022-07-25T07:12:42.416Z,100742.59
2022-07-25T07:15:40.921Z,100741.69
2022-07-25T07:18:38.269Z,100740.06
2022-07-25T07:21:35.287Z,100729.78
2022-07-25T07:24:32.445Z,100721.22
2022-07-25T07:27:29.055Z,100725.75
2022-07-25T07:30:44.208Z,100726.78
2022-07-25T07:33:43.048Z,100730.28
2022-07-25T07:36:39.978Z,100716.00
2022-07-25T07:39:37.397Z,100723.66
2022-07-25T07:42:46.005Z,100708.81
2022-07-25T07:45:43.293Z,100705.00
2022-07-25T07:48:40.111Z,100696.19
2022-07-25T07:51:37.193Z,100704.59
2022-07-25T07:54:57.675Z,100701.75
2022-07-25T07:57:56.411Z,100685.31
2022-07-25T08:00:54.371Z,100696.38
2022-07-25T08:03:51.404Z,100686.66
2022-07-25T08:06:48.395Z,100688.63
2022-07-25T08:09:45.085Z,100682.38
2022-07-25T08:12:42.447Z,100677.34
2022-07-25T08:15:39.275Z,100676.41
2022-07-25T08:18:36.165Z,100673.44
2022-07-25T08:21:33.463Z,100671.03
2022-07-25T08:24:30.439Z,100670.63
2022-07-25T08:27:27.027Z,100678.31
2022-07-25T08:30:24.851Z,100669.69
2022-07-25T08:33:22.276Z,100673.28
2022-07-25T08:36:19.108Z,100666.44
2022-07-25T08:39:16.580Z,100652.06
2022-07-25T08:42:14.100Z,100662.91
2022-07-25T08:45:16.568Z,100660.00
2022-07-25T08:48:14.751Z,100659.09
2022-07-25T08:51:12.404Z,100658.50
2022-07-25T08:54:09.623Z,100654.72
2022-07-25T08:57:07.215Z,100655.78
2022-07-25T09:00:06.369Z,100660.44
2022-07-25T09:03:03.773Z,100650.31
2022-07-25T09:06:01.044Z,100652.47
2022-07-25T09:08:59.773Z,100655.59
2022-07-25T09:11:57.147Z,100661.03
2022-07-25T09:14:54.265Z,100658.09
2022-07-25T09:17:52.181Z,100663.88
2022-07-25T09:20:50.324Z,100663.94
2022-07-25T09:23:47.841Z,100672.22
2022-07-25T09:26:49.975Z,100685.00
2022-07-25T09:29:47.237Z,100678.41
2022-07-25T09:32:45.342Z,100673.25
2022-07-25T09:35:42.459Z,100661.19
2022-07-25T09:38:39.408Z,100659.28
2022-07-25T09:41:37.167Z,100653.66
2022-07-25T09:44:34.142Z,100641.06
2022-07-25T09:47:32.596Z,100651.06
2022-07-25T09:50:30.945Z,100642.66
2022-07-25T09:53:28.522Z,100649.44
2022-07-25T09:56:25.174Z,100646.22
2022-07-25T09:59:22.033Z,100641.69
2022-07-25T10:02:42.146Z,100641.53
2022-07-25T10:05:48.670Z,100648.78
2022-07-25T10:08:46.924Z,100652.03
2022-07-25T10:12:06.847Z,100643.66
2022-07-25T10:15:12.234Z,100647.84
2022-07-25T10:18:09.402Z,100644.13
2022-07-25T10:21:25.109Z,100645.59
2022-07-25T10:24:33.416Z,100649.28
2022-07-25T10:27:30.505Z,100644.13
2022-07-25T10:30:29.225Z,100632.97
2022-07-25T10:33:26.487Z,100646.38
2022-07-25T10:36:24.670Z,100642.16
2022-07-25T10:39:22.372Z,100649.09
2022-07-25T10:42:22.773Z,100644.91
2022-07-25T10:45:20.836Z,100642.78
2022-07-25T10:48:23.230Z,100650.00
2022-07-25T10:51:26.714Z,100638.09
2022-07-25T10:54:24.760Z,100636.19
2022-07-25T10:57:22.521Z,100644.13
2022-07-25T11:00:19.760Z,100641.53
2022-07-25T11:03:18.610Z,100649.63
2022-07-25T11:06:16.573Z,100647.34
2022-07-25T11:09:19.248Z,100664.47
2022-07-25T11:12:19.603Z,100657.19
2022-07-25T11:15:17.419Z,100651.56
2022-07-25T11:18:14.685Z,100654.63
2022-07-25T11:21:12.767Z,100651.41
2022-07-25T11:24:10.398Z,100651.72
2022-07-25T11:27:12.590Z,100659.78
2022-07-25T11:30:11.591Z,100658.97
2022-07-25T11:33:08.374Z,100658.47
2022-07-25T11:36:05.884Z,100663.03
2022-07-25T11:39:03.854Z,100649.28
2022-07-25T11:42:04.109Z,100662.66
2022-07-25T11:45:01.612Z,100652.34
2022-07-25T11:48:12.132Z,100670.94
2022-07-25T11:51:13.761Z,100681.91
2022-07-25T11:54:16.690Z,100672.84
2022-07-25T11:57:23.777Z,100675.94
2022-07-25T12:00:22.169Z,100675.13
2022-07-25T12:03:22.329Z,100674.31
2022-07-25T12:06:19.634Z,100695.28
2022-07-25T12:09:19.301Z,100672.03
2022-07-25T12:12:16.578Z,100677.66
2022-07-25T12:15:16.437Z,100686.03
2022-07-25T12:18:13.823Z,100696.91
2022-07-25T12:21:11.407Z,100697.22
2022-07-25T12:24:08.529Z,100713.84
2022-07-25T12:27:05.417Z,100697.56
2022-07-25T12:30:02.730Z,100694.75
2022-07-25T12:32:59.629Z,100711.03
2022-07-25T12:35:56.435Z,100709.09
2022-07-25T12:38:53.593Z,100719.13
2022-07-25T12:41:50.529Z,100703.38
2022-07-25T12:44:47.525Z,100696.41
2022-07-25T12:47:45.265Z,100695.44
2022-07-25T12:50:43.213Z,100695.16
2022-07-25T12:53:42.627Z,100702.25
2022-07-25T12:56:39.305Z,100719.19
2022-07-25T12:59:36.944Z,100713.19
2022-07-25T13:02:34.390Z,100710.19
2022-07-25T13:05:31.165Z,100724.03
2022-07-25T13:08:28.739Z,100715.44
2022-07-25T13:11:25.845Z,100721.22
2022-07-25T13:14:23.431Z,100708.06
2022-07-25T13:17:24.930Z,100710.25
2022-07-25T13:20:24.413Z,100717.72
2022-07-25T13:23:21.865Z,100727.44
2022-07-25T13:26:19.638Z,100730.13
2022-07-25T13:29:16.234Z,100737.94
2022-07-25T13:32:16.627Z,100748.75
2022-07-25T13:35:17.701Z,100759.63
2022-07-25T13:38:17.647Z,100751.13
2022-07-25T13:41:14.425Z,100761.59
2022-07-25T13:44:13.746Z,100763.88
2022-07-25T13:47:10.686Z,100762.56
2022-07-25T13:50:08.281Z,100766.59
2022-07-25T13:53:06.202Z,100770.53
2022-07-25T13:56:03.706Z,100763.00
2022-07-25T13:59:01.566Z,100766.41
2022-07-25T14:01:58.628Z,100760.41
2022-07-25T14:04:55.534Z,100755.69
2022-07-25T14:07:52.520Z,100767.63
2022-07-25T14:10:49.485Z,100762.00
2022-07-25T14:13:46.775Z,100770.31
2022-07-25T14:16:43.883Z,100777.41
2022-07-25T14:19:41.665Z,100772.31
2022-07-25T14:22:39.652Z,100771.34
2022-07-25T14:25:36.637Z,100767.44
2022-07-25T14:28:33.525Z,100753.94
2022-07-25T14:31:32.021Z,100757.91
2022-07-25T14:34:29.412Z,100782.22
2022-07-25T14:37:26.494Z,100772.94
2022-07-25T14:40:23.485Z,100792.22
2022-07-25T14:43:20.475Z,100788.78
2022-07-25T14:46:17.675Z,100807.59
2022-07-25T14:49:15.173Z,100800.72
2022-07-25T14:52:12.996Z,100809.09
2022-07-25T14:55:10.369Z,100827.88
2022-07-25T14:58:07.869Z,100817.91
2022-07-25T15:01:05.097Z,100813.88
2022-07-25T15:04:02.758Z,100821.63
2022-07-25T15:07:00.868Z,100819.28
2022-07-25T15:09:57.482Z,100809.00
2022-07-25T15:13:20.476Z,100822.41
2022-07-25T15:16:13.043Z,100801.00
2022-07-25T15:19:18.162Z,100811.09
2022-07-25T15:22:15.517Z,100804.72
2022-07-25T15:25:59.921Z,100819.31
2022-07-25T15:28:29.527Z,100824.28
2022-07-25T15:31:26.704Z,100838.28
2022-07-25T15:34:23.773Z,100847.91
2022-07-25T15:37:21.985Z,100849.69
2022-07-25T15:40:19.549Z,100847.94
2022-07-25T15:43:16.415Z,100861.94
2022-07-25T15:46:14.071Z,100858.06
2022-07-25T15:49:12.104Z,100873.47
2022-07-25T15:52:09.465Z,100884.81
2022-07-25T15:55:06.910Z,100891.22
2022-07-25T15:58:05.017Z,100893.00
2022-07-25T16:01:02.595Z,100881.16
2022-07-25T16:04:01.092Z,100882.75
2022-07-25T16:06:58.957Z,100878.00
2022-07-25T16:09:56.686Z,100872.31
2022-07-25T16:12:53.487Z,100877.09
2022-07-25T16:15:51.100Z,100878.00
2022-07-25T16:18:49.101Z,100873.38
2022-07-25T16:21:46.875Z,100882.88
2022-07-25T16:24:44.652Z,100883.16
2022-07-25T16:27:41.888Z,100883.63
2022-07-25T16:30:39.727Z,100873.16
2022-07-25T16:33:36.627Z,100866.75
2022-07-25T16:36:33.760Z,100871.34
2022-07-25T16:39:30.620Z,100867.72
2022-07-25T16:42:27.566Z,100872.97
2022-07-25T16:45:27.884Z,100879.28
2022-07-25T16:48:25.167Z,100867.56
2022-07-25T16:51:23.015Z,100870.97
2022-07-25T16:54:20.790Z,100888.56
2022-07-25T16:57:17.886Z,100885.50
2022-07-25T17:00:20.997Z,100877.00
2022-07-25T17:03:17.610Z,100873.97
2022-07-25T17:06:16.446Z,100886.69
2022-07-25T17:09:13.675Z,100872.44
2022-07-25T17:12:10.658Z,100880.81
2022-07-25T17:15:08.464Z,100878.69
2022-07-25T17:18:06.061Z,100878.31
2022-07-25T17:21:04.321Z,100890.06
2022-07-25T17:24:01.788Z,100891.81
2022-07-25T17:26:58.419Z,100889.28
2022-07-25T17:29:56.085Z,100879.72
2022-07-25T17:32:54.005Z,100885.59
2022-07-25T17:35:52.321Z,100889.75
2022-07-25T17:38:49.802Z,100889.38
2022-07-25T17:41:46.860Z,100895.25
2022-07-25T17:44:43.708Z,100903.66
2022-07-25T17:47:41.029Z,100896.16
2022-07-25T17:50:37.567Z,100911.78
2022-07-25T17:53:34.483Z,100907.78
2022-07-25T17:56:31.713Z,100895.34
2022-07-25T17:59:29.121Z,100909.16
2022-07-25T18:02:26.860Z,100907.47
2022-07-25T18:05:24.171Z,100908.00
2022-07-25T18:08:21.973Z,100904.97
2022-07-25T18:11:18.996Z,100906.84
2022-07-25T18:14:15.594Z,100910.84
2022-07-25T18:17:12.470Z,100915.53
2022-07-25T18:20:11.658Z,100924.41
2022-07-25T18:23:09.123Z,100927.19
2022-07-25T18:26:07.113Z,100922.13
2022-07-25T18:29:06.263Z,100922.16
2022-07-25T18:32:03.943Z,100918.88
2022-07-25T18:35:00.817Z,100929.41
2022-07-25T18:37:57.780Z,100931.81
2022-07-25T18:41:18.883Z,100925.72
2022-07-25T18:44:12.016Z,100934.56
2022-07-25T18:47:09.902Z,100938.91
2022-07-25T18:50:08.370Z,100932.69
2022-07-25T18:53:05.717Z,100940.34
2022-07-25T18:56:03.051Z,100944.84
2022-07-25T18:58:59.821Z,100945.09
2022-07-25T19:01:57.508Z,100940.81
2022-07-25T19:04:54.982Z,100954.22
2022-07-25T19:07:52.001Z,100957.38
2022-07-25T19:10:49.583Z,100961.47
2022-07-25T19:13:50.127Z,100968.72
2022-07-25T19:16:48.256Z,100966.03
2022-07-25T19:19:45.537Z,100980.66
2022-07-25T19:22:43.132Z,100983.31
2022-07-25T19:25:41.093Z,100991.97
2022-07-25T19:28:38.139Z,100990.63
2022-07-25T19:31:35.543Z,100996.03
2022-07-25T19:34:32.505Z,100991.97
2022-07-25T19:37:29.987Z,101002.28
2022-07-25T19:40:26.915Z,101013.81
2022-07-25T19:43:23.843Z,101007.44
2022-07-25T19:46:20.673Z,101021.00
2022-07-25T19:49:18.308Z,101028.81
2022-07-25T19:52:15.822Z,101031.94
2022-07-25T19:55:12.978Z,101032.13
2022-07-25T19:58:10.406Z,101038.94
2022-07-25T20:01:08.011Z,101040.47
2022-07-25T20:04:05.774Z,101025.34
2022-07-25T20:07:03.094Z,101036.00
2022-07-25T20:10:00.967Z,101047.34
2022-07-25T20:13:01.384Z,101052.50
2022-07-25T20:15:59.162Z,101047.22
2022-07-25T20:18:55.793Z,101049.63
2022-07-25T20:21:52.929Z,101049.22
2022-07-25T20:24:50.169Z,101055.56
2022-07-25T20:27:49.904Z,101062.06
2022-07-25T20:30:46.921Z,101056.75
2022-07-25T20:33:44.326Z,101053.38
2022-07-25T20:36:42.520Z,101061.59
2022-07-25T20:39:40.056Z,101061.31
2022-07-25T20:42:38.206Z,101069.47
2022-07-25T20:45:36.822Z,101068.97
2022-07-25T20:48:34.796Z,101065.53
2022-07-25T20:51:32.318Z,101067.16
2022-07-25T20:54:29.565Z,101070.47
2022-07-25T20:57:27.099Z,101079.56
2022-07-25T21:00:25.856Z,101071.09
2022-07-25T21:03:23.055Z,101073.31
2022-07-25T21:06:19.864Z,101067.19
2022-07-25T21:09:23.862Z,101084.75
2022-07-25T21:12:21.120Z,101082.56
2022-07-25T21:15:18.141Z,101084.69
2022-07-25T21:18:14.955Z,101083.56
2022-07-25T21:21:12.452Z,101086.81
2022-07-25T21:24:12.078Z,101088.56
2022-07-25T21:27:09.305Z,101084.75
2022-07-25T21:30:10.592Z,101085.50
2022-07-25T21:33:14.265Z,101091.22
2022-07-25T21:36:11.954Z,101089.69
2022-07-25T21:39:09.589Z,101097.78
2022-07-25T21:42:09.914Z,101096.88
2022-07-25T21:45:07.675Z,101093.16
2022-07-25T21:48:05.624Z,101091.56
2022-07-25T21:51:07.754Z,101097.69
2022-07-25T21:54:05.268Z,101109.72
2022-07-25T21:57:01.993Z,101102.38
2022-07-25T21:59:58.933Z,101107.81
2022-07-25T22:02:56.454Z,101099.22
2022-07-25T22:05:54.068Z,101098.59
2022-07-25T22:08:51.099Z,101098.69
2022-07-25T22:11:48.273Z,101108.38
2022-07-25T22:14:44.898Z,101113.63
2022-07-25T22:17:48.197Z,101109.91
2022-07-25T22:20:47.110Z,101104.06
2022-07-25T22:23:44.340Z,101107.16
2022-07-25T22:26:46.851Z,101103.88
2022-07-25T22:29:44.292Z,101113.38
2022-07-25T22:32:42.227Z,101116.38
2022-07-25T22:35:39.069Z,101119.78
2022-07-25T22:38:36.147Z,101120.06
2022-07-25T22:41:33.021Z,101124.00
2022-07-25T22:44:30.226Z,101131.25
2022-07-25T22:47:27.828Z,101130.28
2022-07-25T22:50:25.407Z,101126.19
2022-07-25T22:53:23.506Z,101123.78
2022-07-25T22:56:21.835Z,101119.50
2022-07-25T22:59:19.376Z,101125.56
2022-07-25T23:02:17.364Z,101139.69
2022-07-25T23:05:16.169Z,101131.66
2022-07-25T23:08:12.967Z,101139.84
2022-07-25T23:11:14.113Z,101139.03
2022-07-25T23:14:11.446Z,101147.22
2022-07-25T23:17:17.797Z,101142.31
2022-07-25T23:20:15.344Z,101147.66
2022-07-25T23:23:12.150Z,101143.94
2022-07-25T23:26:09.089Z,101140.03
2022-07-25T23:29:06.554Z,101149.19
2022-07-25T23:32:04.303Z,101148.44
2022-07-25T23:35:01.851Z,101150.00
2022-07-25T23:37:58.734Z,101155.75
2022-07-25T23:40:57.114Z,101161.06
2022-07-25T23:43:57.474Z,101160.56
2022-07-25T23:46:57.456Z,101166.41
2022-07-25T23:49:55.025Z,101157.44
2022-07-25T23:52:51.880Z,101154.03
2022-07-25T23:55:49.317Z,101159.09
2022-07-25T23:58:47.537Z,101162.84
